Aqua Ramon, Colorado
Current Conditions -  °F | °C
As of 5:50 PM on Friday 31 Oct 2014 (Local Time) from KRCV Reporting Station
Clear Clear  
Wind Chill: 54°   Ceiling: Unl
Heat Index: 54°   Visibility: 10mi
Dew Point: 22°   Wind: 5mph
Humidity: 29%   Direction: 230°SW
Pressure: 30.27"   Gusts: NA
Location:  37.6359°N, 106.449°W
Report Text: KRCV 312350Z AUTO 23004KT 10SM CLR 12/M05 A3027 RMK AO2 T01221055 10136 20092
Loading
Personal Weather Stations






























Interactive Weather Map
Tropical Storm Tracking
New forecast layout! Learn more

10-Day Weather Forecast

Advertisements
Track Severe Weather on mobile